sensor_id;sensor_type;location;lat;lon;timestamp;pressure;altitude;pressure_sealevel;temperature;humidity
70925;BME280;58577;52.410;13.242;2023-01-04T00:02:10;-12349.94;;;1.14;100.00
70925;BME280;58577;52.410;13.242;2023-01-04T00:04:56;-12350.94;;;1.20;100.00
70925;BME280;58577;52.410;13.242;2023-01-04T00:07:41;-12350.66;;;1.18;100.00
70925;BME280;58577;52.410;13.242;2023-01-04T00:10:27;-12352.03;;;1.26;100.00
70925;BME280;58577;52.410;13.242;2023-01-04T00:13:13;-12351.84;;;1.25;100.00
70925;BME280;58577;52.410;13.242;2023-01-04T00:16:04;-12350.41;;;1.16;100.00
70925;BME280;58577;52.410;13.242;2023-01-04T00:18:51;-12353.47;;;1.34;100.00
70925;BME280;58577;52.410;13.242;2023-01-04T00:21:38;-12352.03;;;1.26;100.00
70925;BME280;58577;52.410;13.242;2023-01-04T00:24:23;-12351.50;;;1.23;100.00
70925;BME280;58577;52.410;13.242;2023-01-04T00:27:09;-12351.56;;;1.23;100.00
70925;BME280;58577;52.410;13.242;2023-01-04T00:29:55;-12351.75;;;1.24;100.00
70925;BME280;58577;52.410;13.242;2023-01-04T00:32:41;-12351.50;;;1.23;100.00
70925;BME280;58577;52.410;13.242;2023-01-04T00:35:27;-12349.41;;;1.11;100.00
70925;BME280;58577;52.410;13.242;2023-01-04T00:38:13;-12350.03;;;1.14;100.00
70925;BME280;58577;52.410;13.242;2023-01-04T00:40:59;-12350.59;;;1.17;100.00
70925;BME280;58577;52.410;13.242;2023-01-04T00:43:45;-12350.94;;;1.20;100.00
70925;BME280;58577;52.410;13.242;2023-01-04T00:46:31;-12350.66;;;1.18;100.00
70925;BME280;58577;52.410;13.242;2023-01-04T00:49:17;-12353.31;;;1.33;100.00
70925;BME280;58577;52.410;13.242;2023-01-04T00:52:03;-12355.03;;;1.43;100.00
70925;BME280;58577;52.410;13.242;2023-01-04T00:54:49;-12356.66;;;1.52;100.00
70925;BME280;58577;52.410;13.242;2023-01-04T00:57:35;-12356.94;;;1.53;100.00
70925;BME280;58577;52.410;13.242;2023-01-04T01:00:21;-12358.56;;;1.63;100.00
70925;BME280;58577;52.410;13.242;2023-01-04T01:03:08;-12358.66;;;1.63;100.00
70925;BME280;58577;52.410;13.242;2023-01-04T01:05:54;-12360.84;;;1.75;100.00
70925;BME280;58577;52.410;13.242;2023-01-04T01:08:39;-12361.28;;;1.78;100.00
70925;BME280;58577;52.410;13.242;2023-01-04T01:11:26;-12362.28;;;1.84;100.00
70925;BME280;58577;52.410;13.242;2023-01-04T01:14:16;-12362.75;;;1.86;100.00
70925;BME280;58577;52.410;13.242;2023-01-04T01:17:03;-12363.09;;;1.88;100.00
70925;BME280;58577;52.410;13.242;2023-01-04T01:19:48;-12363.72;;;1.92;100.00
70925;BME280;58577;52.410;13.242;2023-01-04T01:22:34;-12365.63;;;2.03;100.00
70925;BME280;58577;52.410;13.242;2023-01-04T01:25:20;-12364.56;;;1.96;100.00
70925;BME280;58577;52.410;13.242;2023-01-04T01:28:07;-12363.56;;;1.91;100.00
70925;BME280;58577;52.410;13.242;2023-01-04T01:30:53;-12363.38;;;1.90;100.00
70925;BME280;58577;52.410;13.242;2023-01-04T01:33:40;-12364.38;;;1.95;100.00
70925;BME280;58577;52.410;13.242;2023-01-04T01:36:26;-12363.72;;;1.92;100.00
70925;BME280;58577;52.410;13.242;2023-01-04T01:39:12;-12363.19;;;1.89;100.00
70925;BME280;58577;52.410;13.242;2023-01-04T01:41:58;-12362.19;;;1.83;100.00
70925;BME280;58577;52.410;13.242;2023-01-04T01:47:41;-12361.09;;;1.77;100.00
70925;BME280;58577;52.410;13.242;2023-01-04T01:50:32;-12360.66;;;1.74;100.00
70925;BME280;58577;52.410;13.242;2023-01-04T01:53:18;-12360.75;;;1.75;100.00
70925;BME280;58577;52.410;13.242;2023-01-04T01:56:07;-12358.47;;;1.62;100.00
70925;BME280;58577;52.410;13.242;2023-01-04T01:58:54;-12358.66;;;1.63;100.00
70925;BME280;58577;52.410;13.242;2023-01-04T02:01:42;-12357.94;;;1.59;100.00
70925;BME280;58577;52.410;13.242;2023-01-04T02:04:28;-12357.22;;;1.55;100.00
70925;BME280;58577;52.410;13.242;2023-01-04T02:07:19;-12357.13;;;1.54;100.00
70925;BME280;58577;52.410;13.242;2023-01-04T02:10:06;-12357.38;;;1.56;100.00
70925;BME280;58577;52.410;13.242;2023-01-04T02:12:52;-12357.28;;;1.55;100.00
70925;BME280;58577;52.410;13.242;2023-01-04T02:15:56;-12356.84;;;1.53;100.00
70925;BME280;58577;52.410;13.242;2023-01-04T02:18:54;-12354.75;;;1.41;100.00
70925;BME280;58577;52.410;13.242;2023-01-04T02:22:17;-12353.75;;;1.35;100.00
70925;BME280;58577;52.410;13.242;2023-01-04T02:28:08;-12357.03;;;1.54;100.00
70925;BME280;58577;52.410;13.242;2023-01-04T02:31:11;-12356.47;;;1.51;100.00
70925;BME280;58577;52.410;13.242;2023-01-04T02:34:10;-12358.75;;;1.64;100.00
70925;BME280;58577;52.410;13.242;2023-01-04T02:40:26;-12361.38;;;1.79;100.00
70925;BME280;58577;52.410;13.242;2023-01-04T02:43:51;-12361.00;;;1.76;100.00
70925;BME280;58577;52.410;13.242;2023-01-04T02:47:05;-12364.28;;;1.95;100.00
70925;BME280;58577;52.410;13.242;2023-01-04T02:49:51;-12363.81;;;1.92;100.00
70925;BME280;58577;52.410;13.242;2023-01-04T02:53:02;-12364.47;;;1.96;100.00
70925;BME280;58577;52.410;13.242;2023-01-04T02:56:28;-12364.47;;;1.96;100.00
70925;BME280;58577;52.410;13.242;2023-01-04T02:59:35;-12363.91;;;1.93;100.00
70925;BME280;58577;52.410;13.242;2023-01-04T03:09:21;-12362.91;;;1.87;100.00
70925;BME280;58577;52.410;13.242;2023-01-04T03:12:20;-12362.81;;;1.87;100.00
70925;BME280;58577;52.410;13.242;2023-01-04T03:15:21;-12361.81;;;1.81;100.00
70925;BME280;58577;52.410;13.242;2023-01-04T03:18:17;-12361.56;;;1.80;100.00
70925;BME280;58577;52.410;13.242;2023-01-04T03:21:06;-12361.91;;;1.82;100.00
70925;BME280;58577;52.410;13.242;2023-01-04T03:23:55;-12362.66;;;1.86;100.00
70925;BME280;58577;52.410;13.242;2023-01-04T03:27:04;-12361.66;;;1.80;100.00
70925;BME280;58577;52.410;13.242;2023-01-04T03:30:13;-12362.19;;;1.83;100.00
70925;BME280;58577;52.410;13.242;2023-01-04T03:33:19;-12362.56;;;1.85;100.00
70925;BME280;58577;52.410;13.242;2023-01-04T03:36:35;-12362.28;;;1.84;100.00
70925;BME280;58577;52.410;13.242;2023-01-04T03:45:52;-12363.00;;;1.88;100.00
70925;BME280;58577;52.410;13.242;2023-01-04T03:49:04;-12361.38;;;1.79;100.00
70925;BME280;58577;52.410;13.242;2023-01-04T03:51:57;-12360.47;;;1.73;100.00
70925;BME280;58577;52.410;13.242;2023-01-04T03:54:46;-12362.00;;;1.82;100.00
70925;BME280;58577;52.410;13.242;2023-01-04T03:57:34;-12364.47;;;1.96;100.00
70925;BME280;58577;52.410;13.242;2023-01-04T04:00:20;-12363.47;;;1.90;100.00
70925;BME280;58577;52.410;13.242;2023-01-04T04:03:09;-12364.56;;;1.96;100.00
70925;BME280;58577;52.410;13.242;2023-01-04T04:05:54;-12363.38;;;1.90;100.00
70925;BME280;58577;52.410;13.242;2023-01-04T04:08:59;-12364.28;;;1.95;100.00
70925;BME280;58577;52.410;13.242;2023-01-04T04:11:46;-12364.72;;;1.98;100.00
70925;BME280;58577;52.410;13.242;2023-01-04T04:14:32;-12364.09;;;1.94;100.00
70925;BME280;58577;52.410;13.242;2023-01-04T04:17:17;-12366.81;;;2.09;100.00
70925;BME280;58577;52.410;13.242;2023-01-04T04:20:04;-12365.19;;;2.00;100.00
70925;BME280;58577;52.410;13.242;2023-01-04T04:22:50;-12366.28;;;2.06;100.00
70925;BME280;58577;52.410;13.242;2023-01-04T04:25:35;-12365.81;;;2.04;100.00
70925;BME280;58577;52.410;13.242;2023-01-04T04:28:21;-12366.28;;;2.06;100.00
70925;BME280;58577;52.410;13.242;2023-01-04T04:31:07;-12367.44;;;2.13;100.00
70925;BME280;58577;52.410;13.242;2023-01-04T04:33:53;-12364.81;;;1.98;100.00
70925;BME280;58577;52.410;13.242;2023-01-04T04:36:39;-12367.28;;;2.12;100.00
70925;BME280;58577;52.410;13.242;2023-01-04T04:39:24;-12366.28;;;2.06;100.00
70925;BME280;58577;52.410;13.242;2023-01-04T04:42:12;-12368.34;;;2.18;100.00
70925;BME280;58577;52.410;13.242;2023-01-04T04:44:58;-12369.19;;;2.23;100.00
70925;BME280;58577;52.410;13.242;2023-01-04T04:47:44;-12371.72;;;2.37;100.00
70925;BME280;58577;52.410;13.242;2023-01-04T04:50:30;-12371.72;;;2.37;100.00
70925;BME280;58577;52.410;13.242;2023-01-04T04:53:15;-12374.44;;;2.52;100.00
70925;BME280;58577;52.410;13.242;2023-01-04T04:56:01;-12375.06;;;2.56;100.00
70925;BME280;58577;52.410;13.242;2023-01-04T04:58:47;-12375.88;;;2.61;100.00
70925;BME280;58577;52.410;13.242;2023-01-04T05:01:33;-12375.69;;;2.60;100.00
70925;BME280;58577;52.410;13.242;2023-01-04T05:04:19;-12377.16;;;2.68;100.00
70925;BME280;58577;52.410;13.242;2023-01-04T05:07:05;-12377.69;;;2.71;100.00
70925;BME280;58577;52.410;13.242;2023-01-04T05:09:51;-12378.41;;;2.75;100.00
70925;BME280;58577;52.410;13.242;2023-01-04T05:12:37;-12379.31;;;2.80;100.00
70925;BME280;58577;52.410;13.242;2023-01-04T05:15:46;-12379.31;;;2.80;100.00
70925;BME280;58577;52.410;13.242;2023-01-04T05:18:33;-12380.03;;;2.84;100.00
70925;BME280;58577;52.410;13.242;2023-01-04T05:21:19;-12380.78;;;2.88;100.00
70925;BME280;58577;52.410;13.242;2023-01-04T05:24:05;-12382.13;;;2.96;100.00
70925;BME280;58577;52.410;13.242;2023-01-04T05:26:51;-12382.22;;;2.97;100.00
70925;BME280;58577;52.410;13.242;2023-01-04T05:29:37;-12382.31;;;2.97;100.00
70925;BME280;58577;52.410;13.242;2023-01-04T05:32:41;-12382.66;;;2.99;100.00
70925;BME280;58577;52.410;13.242;2023-01-04T05:35:27;-12382.03;;;2.95;100.00
70925;BME280;58577;52.410;13.242;2023-01-04T05:38:13;-12384.38;;;3.09;100.00
70925;BME280;58577;52.410;13.242;2023-01-04T05:40:58;-12384.75;;;3.11;100.00
70925;BME280;58577;52.410;13.242;2023-01-04T05:43:44;-12382.41;;;2.98;100.00
70925;BME280;58577;52.410;13.242;2023-01-04T05:46:30;-12386.09;;;3.19;100.00
70925;BME280;58577;52.410;13.242;2023-01-04T05:49:16;-12385.38;;;3.14;100.00
70925;BME280;58577;52.410;13.242;2023-01-04T05:52:01;-12386.09;;;3.19;100.00
70925;BME280;58577;52.410;13.242;2023-01-04T05:54:47;-12386.09;;;3.19;100.00
70925;BME280;58577;52.410;13.242;2023-01-04T05:57:33;-12388.00;;;3.29;100.00
70925;BME280;58577;52.410;13.242;2023-01-04T06:00:19;-12387.19;;;3.25;100.00
70925;BME280;58577;52.410;13.242;2023-01-04T06:03:05;-12387.09;;;3.24;100.00
70925;BME280;58577;52.410;13.242;2023-01-04T06:05:51;-12389.53;;;3.38;100.00
70925;BME280;58577;52.410;13.242;2023-01-04T06:08:38;-12390.63;;;3.44;100.00
70925;BME280;58577;52.410;13.242;2023-01-04T06:11:24;-12389.44;;;3.38;100.00
70925;BME280;58577;52.410;13.242;2023-01-04T06:14:10;-12389.28;;;3.37;100.00
70925;BME280;58577;52.410;13.242;2023-01-04T06:16:56;-12387.72;;;3.28;100.00
70925;BME280;58577;52.410;13.242;2023-01-04T06:19:41;-12388.72;;;3.33;100.00
70925;BME280;58577;52.410;13.242;2023-01-04T06:22:28;-12388.19;;;3.30;100.00
70925;BME280;58577;52.410;13.242;2023-01-04T06:25:13;-12389.63;;;3.39;100.00
70925;BME280;58577;52.410;13.242;2023-01-04T06:27:59;-12388.00;;;3.29;100.00
70925;BME280;58577;52.410;13.242;2023-01-04T06:30:45;-12389.00;;;3.35;100.00
70925;BME280;58577;52.410;13.242;2023-01-04T06:33:31;-12390.19;;;3.42;100.00
70925;BME280;58577;52.410;13.242;2023-01-04T06:36:18;-12392.06;;;3.52;100.00
70925;BME280;58577;52.410;13.242;2023-01-04T06:39:04;-12394.97;;;3.69;100.00
70925;BME280;58577;52.410;13.242;2023-01-04T06:41:50;-12395.59;;;3.72;100.00
70925;BME280;58577;52.410;13.242;2023-01-04T06:44:36;-12395.44;;;3.71;100.00
70925;BME280;58577;52.410;13.242;2023-01-04T06:47:21;-12395.88;;;3.74;100.00
70925;BME280;58577;52.410;13.242;2023-01-04T06:50:08;-12396.59;;;3.78;100.00
70925;BME280;58577;52.410;13.242;2023-01-04T06:52:53;-12398.31;;;3.88;100.00
70925;BME280;58577;52.410;13.242;2023-01-04T06:55:39;-12398.31;;;3.88;100.00
70925;BME280;58577;52.410;13.242;2023-01-04T06:58:25;-12400.31;;;3.99;99.86
70925;BME280;58577;52.410;13.242;2023-01-04T07:01:11;-12400.94;;;4.03;100.00
70925;BME280;58577;52.410;13.242;2023-01-04T07:03:57;-12401.47;;;4.06;99.74
70925;BME280;58577;52.410;13.242;2023-01-04T07:06:42;-12401.03;;;4.03;100.00
70925;BME280;58577;52.410;13.242;2023-01-04T07:09:29;-12402.84;;;4.13;99.44
70925;BME280;58577;52.410;13.242;2023-01-04T07:12:15;-12403.19;;;4.16;100.00
70925;BME280;58577;52.410;13.242;2023-01-04T07:15:00;-12402.66;;;4.12;100.00
70925;BME280;58577;52.410;13.242;2023-01-04T07:17:47;-12403.56;;;4.18;100.00
70925;BME280;58577;52.410;13.242;2023-01-04T07:20:33;-12403.03;;;4.14;100.00
70925;BME280;58577;52.410;13.242;2023-01-04T07:23:19;-12401.47;;;4.06;100.00
70925;BME280;58577;52.410;13.242;2023-01-04T07:26:04;-12402.75;;;4.13;100.00
70925;BME280;58577;52.410;13.242;2023-01-04T07:28:50;-12401.84;;;4.08;100.00
70925;BME280;58577;52.410;13.242;2023-01-04T07:31:55;-12402.56;;;4.12;100.00
70925;BME280;58577;52.410;13.242;2023-01-04T07:34:41;-12403.19;;;4.16;100.00
70925;BME280;58577;52.410;13.242;2023-01-04T07:37:28;-12402.47;;;4.11;100.00
70925;BME280;58577;52.410;13.242;2023-01-04T07:40:14;-12402.38;;;4.11;100.00
70925;BME280;58577;52.410;13.242;2023-01-04T07:43:00;-12401.31;;;4.05;100.00
70925;BME280;58577;52.410;13.242;2023-01-04T07:45:46;-12401.66;;;4.07;100.00
70925;BME280;58577;52.410;13.242;2023-01-04T07:48:32;-12402.28;;;4.10;100.00
70925;BME280;58577;52.410;13.242;2023-01-04T07:51:18;-12401.94;;;4.08;100.00
70925;BME280;58577;52.410;13.242;2023-01-04T07:54:04;-12401.66;;;4.07;100.00
70925;BME280;58577;52.410;13.242;2023-01-04T07:56:50;-12402.13;;;4.09;100.00
70925;BME280;58577;52.410;13.242;2023-01-04T07:59:36;-12402.47;;;4.11;100.00
70925;BME280;58577;52.410;13.242;2023-01-04T08:02:22;-12402.56;;;4.12;100.00
70925;BME280;58577;52.410;13.242;2023-01-04T08:05:08;-12402.38;;;4.11;100.00
70925;BME280;58577;52.410;13.242;2023-01-04T08:07:53;-12403.03;;;4.14;100.00
70925;BME280;58577;52.410;13.242;2023-01-04T08:10:40;-12403.28;;;4.16;100.00
70925;BME280;58577;52.410;13.242;2023-01-04T08:13:25;-12404.72;;;4.24;100.00
70925;BME280;58577;52.410;13.242;2023-01-04T08:16:21;-12404.28;;;4.22;100.00
70925;BME280;58577;52.410;13.242;2023-01-04T08:19:15;-12404.47;;;4.23;100.00
70925;BME280;58577;52.410;13.242;2023-01-04T08:22:02;-12405.00;;;4.26;100.00
70925;BME280;58577;52.410;13.242;2023-01-04T08:24:47;-12407.16;;;4.38;100.00
70925;BME280;58577;52.410;13.242;2023-01-04T08:27:33;-12408.72;;;4.47;100.00
70925;BME280;58577;52.410;13.242;2023-01-04T08:30:19;-12408.25;;;4.44;100.00
70925;BME280;58577;52.410;13.242;2023-01-04T08:33:12;-12409.53;;;4.51;100.00
70925;BME280;58577;52.410;13.242;2023-01-04T08:36:19;-12410.34;;;4.56;100.00
70925;BME280;58577;52.410;13.242;2023-01-04T08:39:05;-12410.06;;;4.55;100.00
70925;BME280;58577;52.410;13.242;2023-01-04T08:41:51;-12411.16;;;4.61;100.00
70925;BME280;58577;52.410;13.242;2023-01-04T08:44:38;-12411.69;;;4.64;100.00
70925;BME280;58577;52.410;13.242;2023-01-04T08:47:24;-12412.06;;;4.66;100.00
70925;BME280;58577;52.410;13.242;2023-01-04T08:50:10;-12412.06;;;4.66;100.00
70925;BME280;58577;52.410;13.242;2023-01-04T08:52:55;-12413.31;;;4.73;100.00
70925;BME280;58577;52.410;13.242;2023-01-04T08:55:48;-12413.41;;;4.73;100.00
70925;BME280;58577;52.410;13.242;2023-01-04T08:58:35;-12413.84;;;4.76;100.00
70925;BME280;58577;52.410;13.242;2023-01-04T09:01:21;-12414.41;;;4.79;100.00
70925;BME280;58577;52.410;13.242;2023-01-04T09:04:07;-12414.56;;;4.80;100.00
70925;BME280;58577;52.410;13.242;2023-01-04T09:06:53;-12414.41;;;4.79;100.00
70925;BME280;58577;52.410;13.242;2023-01-04T09:09:39;-12414.66;;;4.81;100.00
70925;BME280;58577;52.410;13.242;2023-01-04T09:12:25;-12415.03;;;4.83;100.00
70925;BME280;58577;52.410;13.242;2023-01-04T09:15:11;-12415.75;;;4.87;100.00
70925;BME280;58577;52.410;13.242;2023-01-04T09:17:57;-12415.84;;;4.87;100.00
70925;BME280;58577;52.410;13.242;2023-01-04T09:20:42;-12416.19;;;4.89;100.00
70925;BME280;58577;52.410;13.242;2023-01-04T09:23:29;-12417.28;;;4.96;100.00
70925;BME280;58577;52.410;13.242;2023-01-04T09:26:18;-12416.38;;;4.90;100.00
70925;BME280;58577;52.410;13.242;2023-01-04T09:29:06;-12416.56;;;4.91;100.00
70925;BME280;58577;52.410;13.242;2023-01-04T09:31:54;-12417.66;;;4.98;100.00
70925;BME280;58577;52.410;13.242;2023-01-04T09:34:40;-12418.38;;;5.02;100.00
70925;BME280;58577;52.410;13.242;2023-01-04T09:37:26;-12418.09;;;5.00;100.00
70925;BME280;58577;52.410;13.242;2023-01-04T09:40:22;-12418.91;;;5.05;100.00
70925;BME280;58577;52.410;13.242;2023-01-04T09:43:16;-12419.72;;;5.09;100.00
70925;BME280;58577;52.410;13.242;2023-01-04T09:46:07;-12419.38;;;5.07;100.00
70925;BME280;58577;52.410;13.242;2023-01-04T09:52:03;-12420.81;;;5.16;100.00
70925;BME280;58577;52.410;13.242;2023-01-04T09:54:56;-12421.06;;;5.17;100.00
70925;BME280;58577;52.410;13.242;2023-01-04T09:58:46;-12420.72;;;5.15;100.00
70925;BME280;58577;52.410;13.242;2023-01-04T10:01:20;-12421.25;;;5.18;100.00
70925;BME280;58577;52.410;13.242;2023-01-04T10:04:38;-12422.34;;;5.24;100.00
70925;BME280;58577;52.410;13.242;2023-01-04T10:07:30;-12421.63;;;5.20;100.00
70925;BME280;58577;52.410;13.242;2023-01-04T10:10:21;-12421.78;;;5.21;100.00
70925;BME280;58577;52.410;13.242;2023-01-04T10:16:43;-12422.69;;;5.26;100.00
70925;BME280;58577;52.410;13.242;2023-01-04T10:20:02;-12423.06;;;5.28;100.00
70925;BME280;58577;52.410;13.242;2023-01-04T10:26:00;-12423.78;;;5.32;100.00
70925;BME280;58577;52.410;13.242;2023-01-04T10:29:11;-12423.59;;;5.31;100.00
70925;BME280;58577;52.410;13.242;2023-01-04T10:32:15;-12423.25;;;5.29;100.00
70925;BME280;58577;52.410;13.242;2023-01-04T10:35:15;-12424.06;;;5.34;100.00
70925;BME280;58577;52.410;13.242;2023-01-04T10:38:07;-12424.16;;;5.35;100.00
70925;BME280;58577;52.410;13.242;2023-01-04T10:40:57;-12423.88;;;5.33;100.00
70925;BME280;58577;52.410;13.242;2023-01-04T10:47:33;-12424.25;;;5.35;100.00
70925;BME280;58577;52.410;13.242;2023-01-04T10:50:53;-12424.59;;;5.37;100.00
70925;BME280;58577;52.410;13.242;2023-01-04T10:56:41;-12426.50;;;5.48;100.00
70925;BME280;58577;52.410;13.242;2023-01-04T11:02:34;-12427.22;;;5.52;100.00
70925;BME280;58577;52.410;13.242;2023-01-04T11:05:27;-12426.94;;;5.50;100.00
70925;BME280;58577;52.410;13.242;2023-01-04T11:08:19;-12428.13;;;5.57;100.00
70925;BME280;58577;52.410;13.242;2023-01-04T11:11:12;-12428.84;;;5.61;100.00
70925;BME280;58577;52.410;13.242;2023-01-04T11:13:59;-12429.38;;;5.64;100.00
70925;BME280;58577;52.410;13.242;2023-01-04T11:16:49;-12429.56;;;5.65;100.00
70925;BME280;58577;52.410;13.242;2023-01-04T11:19:35;-12430.09;;;5.68;100.00
70925;BME280;58577;52.410;13.242;2023-01-04T11:22:27;-12429.66;;;5.66;100.00
70925;BME280;58577;52.410;13.242;2023-01-04T11:25:19;-12431.91;;;5.79;100.00
70925;BME280;58577;52.410;13.242;2023-01-04T11:33:56;-12434.25;;;5.92;100.00
70925;BME280;58577;52.410;13.242;2023-01-04T11:36:45;-12434.25;;;5.92;100.00
70925;BME280;58577;52.410;13.242;2023-01-04T11:39:31;-12434.50;;;5.94;100.00
70925;BME280;58577;52.410;13.242;2023-01-04T11:42:20;-12435.06;;;5.97;100.00
70925;BME280;58577;52.410;13.242;2023-01-04T11:45:25;-12436.13;;;6.03;100.00
70925;BME280;58577;52.410;13.242;2023-01-04T11:48:13;-12436.22;;;6.03;100.00
70925;BME280;58577;52.410;13.242;2023-01-04T11:51:00;-12436.50;;;6.05;100.00
70925;BME280;58577;52.410;13.242;2023-01-04T11:57:04;-12437.66;;;6.12;100.00
70925;BME280;58577;52.410;13.242;2023-01-04T12:00:12;-12437.31;;;6.09;100.00
70925;BME280;58577;52.410;13.242;2023-01-04T12:03:10;-12437.84;;;6.13;100.00
70925;BME280;58577;52.410;13.242;2023-01-04T12:05:57;-12438.13;;;6.14;100.00
70925;BME280;58577;52.410;13.242;2023-01-04T12:08:43;-12437.66;;;6.12;100.00
70925;BME280;58577;52.410;13.242;2023-01-04T12:11:34;-12437.50;;;6.10;100.00
70925;BME280;58577;52.410;13.242;2023-01-04T12:14:24;-12437.41;;;6.10;100.00
70925;BME280;58577;52.410;13.242;2023-01-04T12:20:12;-12437.75;;;6.12;100.00
70925;BME280;58577;52.410;13.242;2023-01-04T12:22:59;-12439.19;;;6.20;100.00
70925;BME280;58577;52.410;13.242;2023-01-04T12:25:48;-12439.75;;;6.23;100.00
70925;BME280;58577;52.410;13.242;2023-01-04T12:28:41;-12440.38;;;6.27;100.00
70925;BME280;58577;52.410;13.242;2023-01-04T12:31:28;-12439.47;;;6.22;100.00
70925;BME280;58577;52.410;13.242;2023-01-04T12:37:07;-12439.09;;;6.20;100.00
70925;BME280;58577;52.410;13.242;2023-01-04T12:39:54;-12439.03;;;6.19;100.00
70925;BME280;58577;52.410;13.242;2023-01-04T12:49:47;-12438.38;;;6.16;100.00
70925;BME280;58577;52.410;13.242;2023-01-04T13:01:26;-12439.47;;;6.22;100.00
70925;BME280;58577;52.410;13.242;2023-01-04T13:04:27;-12438.94;;;6.19;100.00
70925;BME280;58577;52.410;13.242;2023-01-04T13:07:18;-12439.38;;;6.21;100.00
70925;BME280;58577;52.410;13.242;2023-01-04T13:13:25;-12438.31;;;6.15;100.00
70925;BME280;58577;52.410;13.242;2023-01-04T13:16:24;-12438.75;;;6.18;100.00
70925;BME280;58577;52.410;13.242;2023-01-04T13:19:21;-12438.75;;;6.18;100.00
70925;BME280;58577;52.410;13.242;2023-01-04T13:22:17;-12439.66;;;6.23;100.00
70925;BME280;58577;52.410;13.242;2023-01-04T13:25:11;-12439.47;;;6.22;100.00
70925;BME280;58577;52.410;13.242;2023-01-04T13:27:59;-12439.91;;;6.24;100.00
70925;BME280;58577;52.410;13.242;2023-01-04T13:30:45;-12440.47;;;6.27;100.00
70925;BME280;58577;52.410;13.242;2023-01-04T13:33:31;-12441.19;;;6.32;100.00
70925;BME280;58577;52.410;13.242;2023-01-04T13:36:18;-12441.09;;;6.31;100.00
70925;BME280;58577;52.410;13.242;2023-01-04T13:39:06;-12441.63;;;6.34;100.00
70925;BME280;58577;52.410;13.242;2023-01-04T13:41:52;-12442.63;;;6.40;100.00
70925;BME280;58577;52.410;13.242;2023-01-04T13:47:49;-12441.91;;;6.36;100.00
70925;BME280;58577;52.410;13.242;2023-01-04T13:50:43;-12442.91;;;6.41;100.00
70925;BME280;58577;52.410;13.242;2023-01-04T13:53:31;-12442.16;;;6.37;100.00
70925;BME280;58577;52.410;13.242;2023-01-04T13:56:21;-12444.16;;;6.48;100.00
70925;BME280;58577;52.410;13.242;2023-01-04T13:59:07;-12442.81;;;6.41;100.00
70925;BME280;58577;52.410;13.242;2023-01-04T14:01:53;-12442.72;;;6.40;100.00
70925;BME280;58577;52.410;13.242;2023-01-04T14:04:41;-12443.34;;;6.44;100.00
70925;BME280;58577;52.410;13.242;2023-01-04T14:07:27;-12445.06;;;6.54;100.00
70925;BME280;58577;52.410;13.242;2023-01-04T14:10:17;-12444.88;;;6.53;100.00
70925;BME280;58577;52.410;13.242;2023-01-04T14:13:03;-12445.97;;;6.59;100.00
70925;BME280;58577;52.410;13.242;2023-01-04T14:16:04;-12446.03;;;6.59;100.00
70925;BME280;58577;52.410;13.242;2023-01-04T14:18:54;-12445.31;;;6.55;100.00
70925;BME280;58577;52.410;13.242;2023-01-04T14:21:41;-12445.06;;;6.54;100.00
70925;BME280;58577;52.410;13.242;2023-01-04T14:24:31;-12445.97;;;6.59;100.00
70925;BME280;58577;52.410;13.242;2023-01-04T14:27:37;-12445.97;;;6.59;100.00
70925;BME280;58577;52.410;13.242;2023-01-04T14:30:24;-12446.50;;;6.62;100.00
70925;BME280;58577;52.410;13.242;2023-01-04T14:33:30;-12446.94;;;6.64;100.00
70925;BME280;58577;52.410;13.242;2023-01-04T14:36:28;-12447.94;;;6.70;100.00
70925;BME280;58577;52.410;13.242;2023-01-04T14:39:18;-12447.84;;;6.69;100.00
70925;BME280;58577;52.410;13.242;2023-01-04T14:42:22;-12448.56;;;6.74;100.00
70925;BME280;58577;52.410;13.242;2023-01-04T14:45:12;-12448.66;;;6.74;100.00
70925;BME280;58577;52.410;13.242;2023-01-04T14:47:58;-12448.84;;;6.75;100.00
70925;BME280;58577;52.410;13.242;2023-01-04T14:50:44;-12448.56;;;6.74;100.00
70925;BME280;58577;52.410;13.242;2023-01-04T14:53:29;-12449.28;;;6.78;100.00
70925;BME280;58577;52.410;13.242;2023-01-04T14:56:17;-12449.38;;;6.78;100.00
70925;BME280;58577;52.410;13.242;2023-01-04T14:59:03;-12449.19;;;6.77;100.00
70925;BME280;58577;52.410;13.242;2023-01-04T15:01:50;-12450.09;;;6.82;100.00
70925;BME280;58577;52.410;13.242;2023-01-04T15:04:36;-12449.38;;;6.78;100.00
70925;BME280;58577;52.410;13.242;2023-01-04T15:07:36;-12451.63;;;6.91;100.00
70925;BME280;58577;52.410;13.242;2023-01-04T15:10:25;-12451.19;;;6.88;100.00
70925;BME280;58577;52.410;13.242;2023-01-04T15:13:12;-12451.53;;;6.91;100.00
70925;BME280;58577;52.410;13.242;2023-01-04T15:15:58;-12451.19;;;6.88;100.00
70925;BME280;58577;52.410;13.242;2023-01-04T15:18:44;-12451.19;;;6.88;100.00
70925;BME280;58577;52.410;13.242;2023-01-04T15:21:30;-12450.81;;;6.86;100.00
70925;BME280;58577;52.410;13.242;2023-01-04T15:24:16;-12452.06;;;6.94;100.00
70925;BME280;58577;52.410;13.242;2023-01-04T15:27:02;-12451.53;;;6.91;100.00
70925;BME280;58577;52.410;13.242;2023-01-04T15:29:47;-12452.34;;;6.95;100.00
70925;BME280;58577;52.410;13.242;2023-01-04T15:32:33;-12453.34;;;7.01;100.00
70925;BME280;58577;52.410;13.242;2023-01-04T15:35:20;-12453.16;;;7.00;100.00
70925;BME280;58577;52.410;13.242;2023-01-04T15:38:06;-12453.69;;;7.03;100.00
70925;BME280;58577;52.410;13.242;2023-01-04T15:40:58;-12455.03;;;7.11;100.00
70925;BME280;58577;52.410;13.242;2023-01-04T15:43:44;-12453.16;;;7.00;100.00
70925;BME280;58577;52.410;13.242;2023-01-04T15:46:30;-12453.50;;;7.02;100.00
70925;BME280;58577;52.410;13.242;2023-01-04T15:49:16;-12456.13;;;7.17;100.00
70925;BME280;58577;52.410;13.242;2023-01-04T15:52:01;-12454.31;;;7.06;100.00
70925;BME280;58577;52.410;13.242;2023-01-04T15:54:47;-12454.59;;;7.08;100.00
70925;BME280;58577;52.410;13.242;2023-01-04T15:57:33;-12455.22;;;7.12;100.00